sensor_id;sensor_type;location;lat;lon;timestamp;temperature;humidity
216;HTU21D;45701;48.81287245;9.14186865;2022-08-20T00:00:46;21.16;65.45
216;HTU21D;45701;48.81287245;9.14186865;2022-08-20T00:03:15;21.11;65.60
216;HTU21D;45701;48.81287245;9.14186865;2022-08-20T00:05:44;21.05;65.88
216;HTU21D;45701;48.81287245;9.14186865;2022-08-20T00:08:11;21.13;65.54
216;HTU21D;45701;48.81287245;9.14186865;2022-08-20T00:10:40;21.08;65.80
216;HTU21D;45701;48.81287245;9.14186865;2022-08-20T00:13:09;21.14;65.52
216;HTU21D;45701;48.81287245;9.14186865;2022-08-20T00:15:38;20.99;66.17
216;HTU21D;45701;48.81287245;9.14186865;2022-08-20T00:18:06;21.06;65.98
216;HTU21D;45701;48.81287245;9.14186865;2022-08-20T00:20:35;20.90;66.69
216;HTU21D;45701;48.81287245;9.14186865;2022-08-20T00:23:04;20.89;66.72
216;HTU21D;45701;48.81287245;9.14186865;2022-08-20T00:25:31;20.79;67.17
216;HTU21D;45701;48.81287245;9.14186865;2022-08-20T00:27:58;20.65;67.80
216;HTU21D;45701;48.81287245;9.14186865;2022-08-20T00:30:26;20.70;67.71
216;HTU21D;45701;48.81287245;9.14186865;2022-08-20T00:32:54;20.63;67.93
216;HTU21D;45701;48.81287245;9.14186865;2022-08-20T00:35:25;20.64;68.02
216;HTU21D;45701;48.81287245;9.14186865;2022-08-20T00:37:53;20.68;68.11
216;HTU21D;45701;48.81287245;9.14186865;2022-08-20T00:40:22;20.68;67.86
216;HTU21D;45701;48.81287245;9.14186865;2022-08-20T00:42:52;20.60;68.39
216;HTU21D;45701;48.81287245;9.14186865;2022-08-20T00:45:20;20.68;67.98
216;HTU21D;45701;48.81287245;9.14186865;2022-08-20T00:47:47;20.68;67.85
216;HTU21D;45701;48.81287245;9.14186865;2022-08-20T00:50:16;20.68;67.94
216;HTU21D;45701;48.81287245;9.14186865;2022-08-20T00:52:47;20.64;68.12
216;HTU21D;45701;48.81287245;9.14186865;2022-08-20T00:55:15;20.71;67.91
216;HTU21D;45701;48.81287245;9.14186865;2022-08-20T00:57:46;20.69;67.97
216;HTU21D;45701;48.81287245;9.14186865;2022-08-20T01:00:18;20.56;68.52
216;HTU21D;45701;48.81287245;9.14186865;2022-08-20T01:02:46;20.58;68.49
216;HTU21D;45701;48.81287245;9.14186865;2022-08-20T01:05:15;20.66;68.04
216;HTU21D;45701;48.81287245;9.14186865;2022-08-20T01:07:42;20.60;68.37
216;HTU21D;45701;48.81287245;9.14186865;2022-08-20T01:10:13;20.59;68.48
216;HTU21D;45701;48.81287245;9.14186865;2022-08-20T01:12:42;20.59;68.44
216;HTU21D;45701;48.81287245;9.14186865;2022-08-20T01:15:12;20.58;68.44
216;HTU21D;45701;48.81287245;9.14186865;2022-08-20T01:17:44;20.68;68.05
216;HTU21D;45701;48.81287245;9.14186865;2022-08-20T01:20:14;20.65;68.26
216;HTU21D;45701;48.81287245;9.14186865;2022-08-20T01:22:44;20.62;68.42
216;HTU21D;45701;48.81287245;9.14186865;2022-08-20T01:25:37;20.57;68.69
216;HTU21D;45701;48.81287245;9.14186865;2022-08-20T01:28:04;20.60;68.48
216;HTU21D;45701;48.81287245;9.14186865;2022-08-20T01:30:32;20.53;68.81
216;HTU21D;45701;48.81287245;9.14186865;2022-08-20T01:32:59;20.48;69.02
216;HTU21D;45701;48.81287245;9.14186865;2022-08-20T01:35:27;20.48;69.15
216;HTU21D;45701;48.81287245;9.14186865;2022-08-20T01:37:54;20.48;69.23
216;HTU21D;45701;48.81287245;9.14186865;2022-08-20T01:43:11;20.51;68.87
216;HTU21D;45701;48.81287245;9.14186865;2022-08-20T01:45:37;20.50;69.09
216;HTU21D;45701;48.81287245;9.14186865;2022-08-20T01:48:04;20.47;69.36
216;HTU21D;45701;48.81287245;9.14186865;2022-08-20T01:50:33;20.55;68.93
216;HTU21D;45701;48.81287245;9.14186865;2022-08-20T01:53:06;20.56;68.78
216;HTU21D;45701;48.81287245;9.14186865;2022-08-20T01:55:33;20.53;68.97
216;HTU21D;45701;48.81287245;9.14186865;2022-08-20T01:58:00;20.58;68.84
216;HTU21D;45701;48.81287245;9.14186865;2022-08-20T02:00:29;20.64;68.46
216;HTU21D;45701;48.81287245;9.14186865;2022-08-20T02:02:56;20.66;68.48
216;HTU21D;45701;48.81287245;9.14186865;2022-08-20T02:05:23;20.58;68.79
216;HTU21D;45701;48.81287245;9.14186865;2022-08-20T02:07:50;20.58;68.91
216;HTU21D;45701;48.81287245;9.14186865;2022-08-20T02:10:17;20.60;68.95
216;HTU21D;45701;48.81287245;9.14186865;2022-08-20T02:12:44;20.70;68.46
216;HTU21D;45701;48.81287245;9.14186865;2022-08-20T02:15:11;20.71;68.65
216;HTU21D;45701;48.81287245;9.14186865;2022-08-20T02:17:40;20.75;68.33
216;HTU21D;45701;48.81287245;9.14186865;2022-08-20T02:20:11;20.85;67.81
216;HTU21D;45701;48.81287245;9.14186865;2022-08-20T02:22:41;20.71;68.41
216;HTU21D;45701;48.81287245;9.14186865;2022-08-20T02:25:10;20.68;68.73
216;HTU21D;45701;48.81287245;9.14186865;2022-08-20T02:27:39;20.68;68.65
216;HTU21D;45701;48.81287245;9.14186865;2022-08-20T02:30:09;20.65;68.87
216;HTU21D;45701;48.81287245;9.14186865;2022-08-20T02:32:37;20.63;68.88
216;HTU21D;45701;48.81287245;9.14186865;2022-08-20T02:35:08;20.70;68.80
216;HTU21D;45701;48.81287245;9.14186865;2022-08-20T02:37:36;20.77;68.57
216;HTU21D;45701;48.81287245;9.14186865;2022-08-20T02:40:05;20.71;68.68
216;HTU21D;45701;48.81287245;9.14186865;2022-08-20T02:42:33;20.84;68.13
216;HTU21D;45701;48.81287245;9.14186865;2022-08-20T02:45:02;20.75;68.58
216;HTU21D;45701;48.81287245;9.14186865;2022-08-20T02:47:28;20.68;68.85
216;HTU21D;45701;48.81287245;9.14186865;2022-08-20T02:49:55;20.72;68.76
216;HTU21D;45701;48.81287245;9.14186865;2022-08-20T02:52:25;20.58;69.39
216;HTU21D;45701;48.81287245;9.14186865;2022-08-20T02:54:52;20.55;69.70
216;HTU21D;45701;48.81287245;9.14186865;2022-08-20T02:57:19;20.54;69.71
216;HTU21D;45701;48.81287245;9.14186865;2022-08-20T02:59:46;20.58;69.55
216;HTU21D;45701;48.81287245;9.14186865;2022-08-20T03:02:14;20.44;70.10
216;HTU21D;45701;48.81287245;9.14186865;2022-08-20T03:04:41;20.46;70.16
216;HTU21D;45701;48.81287245;9.14186865;2022-08-20T03:07:08;20.44;70.38
216;HTU21D;45701;48.81287245;9.14186865;2022-08-20T03:09:37;20.41;70.55
216;HTU21D;45701;48.81287245;9.14186865;2022-08-20T03:12:04;20.40;70.55
216;HTU21D;45701;48.81287245;9.14186865;2022-08-20T03:14:32;20.45;70.45
216;HTU21D;45701;48.81287245;9.14186865;2022-08-20T03:16:59;20.41;70.69
216;HTU21D;45701;48.81287245;9.14186865;2022-08-20T03:19:26;20.44;70.67
216;HTU21D;45701;48.81287245;9.14186865;2022-08-20T03:21:53;20.45;70.55
216;HTU21D;45701;48.81287245;9.14186865;2022-08-20T03:24:20;20.51;70.31
216;HTU21D;45701;48.81287245;9.14186865;2022-08-20T03:26:48;20.55;70.19
216;HTU21D;45701;48.81287245;9.14186865;2022-08-20T03:29:15;20.43;70.64
216;HTU21D;45701;48.81287245;9.14186865;2022-08-20T03:31:42;20.45;70.71
216;HTU21D;45701;48.81287245;9.14186865;2022-08-20T03:34:09;20.42;70.84
216;HTU21D;45701;48.81287245;9.14186865;2022-08-20T03:36:36;20.43;70.86
216;HTU21D;45701;48.81287245;9.14186865;2022-08-20T03:39:05;20.43;70.88
216;HTU21D;45701;48.81287245;9.14186865;2022-08-20T03:41:35;20.57;70.26
216;HTU21D;45701;48.81287245;9.14186865;2022-08-20T03:44:04;20.63;70.03
216;HTU21D;45701;48.81287245;9.14186865;2022-08-20T03:46:31;20.54;70.45
216;HTU21D;45701;48.81287245;9.14186865;2022-08-20T03:48:58;20.47;70.69
216;HTU21D;45701;48.81287245;9.14186865;2022-08-20T03:51:25;20.48;70.60
216;HTU21D;45701;48.81287245;9.14186865;2022-08-20T03:53:52;20.55;70.79
216;HTU21D;45701;48.81287245;9.14186865;2022-08-20T03:56:19;20.50;71.16
216;HTU21D;45701;48.81287245;9.14186865;2022-08-20T03:58:45;20.44;71.42
216;HTU21D;45701;48.81287245;9.14186865;2022-08-20T04:01:13;20.43;71.54
216;HTU21D;45701;48.81287245;9.14186865;2022-08-20T04:03:40;20.36;71.89
216;HTU21D;45701;48.81287245;9.14186865;2022-08-20T04:06:07;20.39;71.57
216;HTU21D;45701;48.81287245;9.14186865;2022-08-20T04:08:33;20.33;72.09
216;HTU21D;45701;48.81287245;9.14186865;2022-08-20T04:11:00;20.49;71.55
216;HTU21D;45701;48.81287245;9.14186865;2022-08-20T04:13:28;20.60;70.68
216;HTU21D;45701;48.81287245;9.14186865;2022-08-20T04:15:54;20.51;71.09
216;HTU21D;45701;48.81287245;9.14186865;2022-08-20T04:18:24;20.55;70.96
216;HTU21D;45701;48.81287245;9.14186865;2022-08-20T04:20:52;20.60;70.80
216;HTU21D;45701;48.81287245;9.14186865;2022-08-20T04:23:20;20.57;70.92
216;HTU21D;45701;48.81287245;9.14186865;2022-08-20T04:25:47;20.49;71.27
216;HTU21D;45701;48.81287245;9.14186865;2022-08-20T04:28:15;20.49;71.32
216;HTU21D;45701;48.81287245;9.14186865;2022-08-20T04:30:46;20.58;71.38
216;HTU21D;45701;48.81287245;9.14186865;2022-08-20T04:33:12;20.57;71.91
216;HTU21D;45701;48.81287245;9.14186865;2022-08-20T04:35:42;20.39;72.86
216;HTU21D;45701;48.81287245;9.14186865;2022-08-20T04:38:13;20.45;72.69
216;HTU21D;45701;48.81287245;9.14186865;2022-08-20T04:40:40;20.44;72.69
216;HTU21D;45701;48.81287245;9.14186865;2022-08-20T04:43:18;20.37;72.93
216;HTU21D;45701;48.81287245;9.14186865;2022-08-20T04:45:45;20.48;72.70
216;HTU21D;45701;48.81287245;9.14186865;2022-08-20T04:48:13;20.46;72.73
216;HTU21D;45701;48.81287245;9.14186865;2022-08-20T04:50:43;20.43;72.97
216;HTU21D;45701;48.81287245;9.14186865;2022-08-20T04:53:13;20.44;72.90
216;HTU21D;45701;48.81287245;9.14186865;2022-08-20T04:55:42;20.51;72.74
216;HTU21D;45701;48.81287245;9.14186865;2022-08-20T04:58:12;20.53;72.70
216;HTU21D;45701;48.81287245;9.14186865;2022-08-20T05:00:44;20.57;72.56
216;HTU21D;45701;48.81287245;9.14186865;2022-08-20T05:03:11;20.45;73.01
216;HTU21D;45701;48.81287245;9.14186865;2022-08-20T05:05:38;20.53;72.73
216;HTU21D;45701;48.81287245;9.14186865;2022-08-20T05:08:06;20.40;73.39
216;HTU21D;45701;48.81287245;9.14186865;2022-08-20T05:10:33;20.34;73.62
216;HTU21D;45701;48.81287245;9.14186865;2022-08-20T05:13:01;20.45;73.27
216;HTU21D;45701;48.81287245;9.14186865;2022-08-20T05:15:28;20.41;73.61
216;HTU21D;45701;48.81287245;9.14186865;2022-08-20T05:17:57;20.33;74.14
216;HTU21D;45701;48.81287245;9.14186865;2022-08-20T05:20:25;20.36;73.90
216;HTU21D;45701;48.81287245;9.14186865;2022-08-20T05:22:56;20.36;73.88
216;HTU21D;45701;48.81287245;9.14186865;2022-08-20T05:25:24;20.30;74.20
216;HTU21D;45701;48.81287245;9.14186865;2022-08-20T05:27:55;20.30;74.57
216;HTU21D;45701;48.81287245;9.14186865;2022-08-20T05:30:26;20.33;74.58
216;HTU21D;45701;48.81287245;9.14186865;2022-08-20T05:32:58;20.45;74.14
216;HTU21D;45701;48.81287245;9.14186865;2022-08-20T05:35:24;20.46;74.17
216;HTU21D;45701;48.81287245;9.14186865;2022-08-20T05:37:52;20.57;73.40
216;HTU21D;45701;48.81287245;9.14186865;2022-08-20T05:40:19;20.57;74.21
216;HTU21D;45701;48.81287245;9.14186865;2022-08-20T05:42:48;20.44;74.75
216;HTU21D;45701;48.81287245;9.14186865;2022-08-20T05:45:16;20.41;74.96
216;HTU21D;45701;48.81287245;9.14186865;2022-08-20T05:47:43;20.40;75.42
216;HTU21D;45701;48.81287245;9.14186865;2022-08-20T05:50:11;20.40;75.89
216;HTU21D;45701;48.81287245;9.14186865;2022-08-20T05:52:38;20.43;76.00
216;HTU21D;45701;48.81287245;9.14186865;2022-08-20T05:55:08;20.48;75.90
216;HTU21D;45701;48.81287245;9.14186865;2022-08-20T05:57:35;20.65;75.09
216;HTU21D;45701;48.81287245;9.14186865;2022-08-20T06:00:05;20.75;74.89
216;HTU21D;45701;48.81287245;9.14186865;2022-08-20T06:02:37;20.98;73.85
216;HTU21D;45701;48.81287245;9.14186865;2022-08-20T06:05:21;21.01;72.25
216;HTU21D;45701;48.81287245;9.14186865;2022-08-20T06:07:48;20.89;72.72
216;HTU21D;45701;48.81287245;9.14186865;2022-08-20T06:10:16;20.94;73.29
216;HTU21D;45701;48.81287245;9.14186865;2022-08-20T06:12:42;21.05;72.29
216;HTU21D;45701;48.81287245;9.14186865;2022-08-20T06:15:12;21.25;70.78
216;HTU21D;45701;48.81287245;9.14186865;2022-08-20T06:17:39;21.20;71.17
216;HTU21D;45701;48.81287245;9.14186865;2022-08-20T06:20:07;21.19;70.77
216;HTU21D;45701;48.81287245;9.14186865;2022-08-20T06:22:34;21.07;71.21
216;HTU21D;45701;48.81287245;9.14186865;2022-08-20T06:25:03;21.09;70.78
216;HTU21D;45701;48.81287245;9.14186865;2022-08-20T06:27:31;21.06;71.28
216;HTU21D;45701;48.81287245;9.14186865;2022-08-20T06:29:58;21.19;71.06
216;HTU21D;45701;48.81287245;9.14186865;2022-08-20T06:32:26;21.18;70.70
216;HTU21D;45701;48.81287245;9.14186865;2022-08-20T06:34:53;21.14;70.97
216;HTU21D;45701;48.81287245;9.14186865;2022-08-20T06:37:23;21.09;71.13
216;HTU21D;45701;48.81287245;9.14186865;2022-08-20T06:39:51;21.07;71.35
216;HTU21D;45701;48.81287245;9.14186865;2022-08-20T06:42:19;21.06;71.66
216;HTU21D;45701;48.81287245;9.14186865;2022-08-20T06:44:46;21.14;71.13
216;HTU21D;45701;48.81287245;9.14186865;2022-08-20T06:47:14;21.09;71.13
216;HTU21D;45701;48.81287245;9.14186865;2022-08-20T06:49:43;20.99;71.50
216;HTU21D;45701;48.81287245;9.14186865;2022-08-20T06:52:10;20.88;71.73
216;HTU21D;45701;48.81287245;9.14186865;2022-08-20T06:54:37;20.85;72.54
216;HTU21D;45701;48.81287245;9.14186865;2022-08-20T06:57:04;20.86;71.80
216;HTU21D;45701;48.81287245;9.14186865;2022-08-20T06:59:31;20.89;72.06
216;HTU21D;45701;48.81287245;9.14186865;2022-08-20T07:01:57;20.95;71.41
216;HTU21D;45701;48.81287245;9.14186865;2022-08-20T07:04:25;20.83;72.39
216;HTU21D;45701;48.81287245;9.14186865;2022-08-20T07:06:54;20.96;71.39
216;HTU21D;45701;48.81287245;9.14186865;2022-08-20T07:09:23;21.04;71.33
216;HTU21D;45701;48.81287245;9.14186865;2022-08-20T07:11:50;21.07;71.19
216;HTU21D;45701;48.81287245;9.14186865;2022-08-20T07:14:18;21.31;69.94
216;HTU21D;45701;48.81287245;9.14186865;2022-08-20T07:16:45;21.24;70.07
216;HTU21D;45701;48.81287245;9.14186865;2022-08-20T07:19:13;21.24;70.23
216;HTU21D;45701;48.81287245;9.14186865;2022-08-20T07:21:39;21.31;70.32
216;HTU21D;45701;48.81287245;9.14186865;2022-08-20T07:24:07;21.39;70.00
216;HTU21D;45701;48.81287245;9.14186865;2022-08-20T07:26:35;21.45;69.55
216;HTU21D;45701;48.81287245;9.14186865;2022-08-20T07:29:02;21.48;69.33
216;HTU21D;45701;48.81287245;9.14186865;2022-08-20T07:31:29;21.61;68.84
216;HTU21D;45701;48.81287245;9.14186865;2022-08-20T07:34:13;21.64;68.84
216;HTU21D;45701;48.81287245;9.14186865;2022-08-20T07:36:39;21.73;68.08
216;HTU21D;45701;48.81287245;9.14186865;2022-08-20T07:39:07;21.85;67.95
216;HTU21D;45701;48.81287245;9.14186865;2022-08-20T07:41:34;21.87;67.46
216;HTU21D;45701;48.81287245;9.14186865;2022-08-20T07:44:01;21.92;67.19
216;HTU21D;45701;48.81287245;9.14186865;2022-08-20T07:46:29;21.87;67.10
216;HTU21D;45701;48.81287245;9.14186865;2022-08-20T07:48:56;21.88;67.06
216;HTU21D;45701;48.81287245;9.14186865;2022-08-20T07:51:24;21.89;67.04
216;HTU21D;45701;48.81287245;9.14186865;2022-08-20T07:53:51;21.92;67.07
216;HTU21D;45701;48.81287245;9.14186865;2022-08-20T07:56:21;22.05;66.74
216;HTU21D;45701;48.81287245;9.14186865;2022-08-20T07:58:51;22.09;66.98
216;HTU21D;45701;48.81287245;9.14186865;2022-08-20T08:01:21;22.20;66.28
216;HTU21D;45701;48.81287245;9.14186865;2022-08-20T08:03:49;22.20;66.11
216;HTU21D;45701;48.81287245;9.14186865;2022-08-20T08:06:17;22.20;66.07
216;HTU21D;45701;48.81287245;9.14186865;2022-08-20T08:08:44;22.31;65.62
216;HTU21D;45701;48.81287245;9.14186865;2022-08-20T08:11:12;22.44;65.69
216;HTU21D;45701;48.81287245;9.14186865;2022-08-20T08:13:41;22.51;64.67
216;HTU21D;45701;48.81287245;9.14186865;2022-08-20T08:16:09;22.41;65.19
216;HTU21D;45701;48.81287245;9.14186865;2022-08-20T08:18:39;22.32;66.21
216;HTU21D;45701;48.81287245;9.14186865;2022-08-20T08:21:07;22.60;65.46
216;HTU21D;45701;48.81287245;9.14186865;2022-08-20T08:23:37;22.65;64.27
216;HTU21D;45701;48.81287245;9.14186865;2022-08-20T08:26:04;22.85;63.95
216;HTU21D;45701;48.81287245;9.14186865;2022-08-20T08:28:31;22.91;63.25
216;HTU21D;45701;48.81287245;9.14186865;2022-08-20T08:30:59;23.06;62.89
216;HTU21D;45701;48.81287245;9.14186865;2022-08-20T08:33:27;23.07;61.93
216;HTU21D;45701;48.81287245;9.14186865;2022-08-20T08:35:57;23.06;62.30
216;HTU21D;45701;48.81287245;9.14186865;2022-08-20T08:38:25;23.06;61.81
216;HTU21D;45701;48.81287245;9.14186865;2022-08-20T08:40:54;23.03;61.79
216;HTU21D;45701;48.81287245;9.14186865;2022-08-20T08:43:23;22.97;62.01
216;HTU21D;45701;48.81287245;9.14186865;2022-08-20T08:45:56;23.07;61.76
216;HTU21D;45701;48.81287245;9.14186865;2022-08-20T08:48:32;23.27;61.13
216;HTU21D;45701;48.81287245;9.14186865;2022-08-20T08:51:01;23.25;60.74
216;HTU21D;45701;48.81287245;9.14186865;2022-08-20T08:53:36;23.18;61.25
216;HTU21D;45701;48.81287245;9.14186865;2022-08-20T08:56:04;23.10;60.97
216;HTU21D;45701;48.81287245;9.14186865;2022-08-20T08:58:31;22.92;61.89
216;HTU21D;45701;48.81287245;9.14186865;2022-08-20T09:01:02;23.13;61.73
216;HTU21D;45701;48.81287245;9.14186865;2022-08-20T09:03:32;23.38;61.64
216;HTU21D;45701;48.81287245;9.14186865;2022-08-20T09:06:00;23.42;60.75
216;HTU21D;45701;48.81287245;9.14186865;2022-08-20T09:08:30;23.46;60.83
216;HTU21D;45701;48.81287245;9.14186865;2022-08-20T09:11:02;23.57;60.37
216;HTU21D;45701;48.81287245;9.14186865;2022-08-20T09:13:29;23.81;60.18
216;HTU21D;45701;48.81287245;9.14186865;2022-08-20T09:15:56;23.85;59.76
216;HTU21D;45701;48.81287245;9.14186865;2022-08-20T09:18:23;23.58;58.19
216;HTU21D;45701;48.81287245;9.14186865;2022-08-20T09:20:51;23.85;57.93
216;HTU21D;45701;48.81287245;9.14186865;2022-08-20T09:23:18;23.92;56.80
216;HTU21D;45701;48.81287245;9.14186865;2022-08-20T09:25:44;23.85;57.87
216;HTU21D;45701;48.81287245;9.14186865;2022-08-20T09:28:11;24.01;57.19
216;HTU21D;45701;48.81287245;9.14186865;2022-08-20T09:30:37;23.73;58.03
216;HTU21D;45701;48.81287245;9.14186865;2022-08-20T09:33:04;23.67;58.54
216;HTU21D;45701;48.81287245;9.14186865;2022-08-20T09:35:31;23.57;58.90
216;HTU21D;45701;48.81287245;9.14186865;2022-08-20T09:38:00;23.47;59.61
216;HTU21D;45701;48.81287245;9.14186865;2022-08-20T09:40:27;23.37;59.84
216;HTU21D;45701;48.81287245;9.14186865;2022-08-20T09:42:53;23.30;60.18
216;HTU21D;45701;48.81287245;9.14186865;2022-08-20T09:45:20;23.34;60.26
216;HTU21D;45701;48.81287245;9.14186865;2022-08-20T09:47:47;23.28;60.08
216;HTU21D;45701;48.81287245;9.14186865;2022-08-20T09:50:14;23.18;60.74
216;HTU21D;45701;48.81287245;9.14186865;2022-08-20T09:52:43;22.97;61.69
216;HTU21D;45701;48.81287245;9.14186865;2022-08-20T09:55:18;22.86;60.85
216;HTU21D;45701;48.81287245;9.14186865;2022-08-20T09:57:46;23.01;59.69
216;HTU21D;45701;48.81287245;9.14186865;2022-08-20T10:00:14;23.22;59.31
216;HTU21D;45701;48.81287245;9.14186865;2022-08-20T10:02:42;23.23;60.15
216;HTU21D;45701;48.81287245;9.14186865;2022-08-20T10:05:09;23.21;60.53
216;HTU21D;45701;48.81287245;9.14186865;2022-08-20T10:07:37;23.46;60.07
216;HTU21D;45701;48.81287245;9.14186865;2022-08-20T10:10:05;23.57;59.41
216;HTU21D;45701;48.81287245;9.14186865;2022-08-20T10:12:34;23.41;59.92
216;HTU21D;45701;48.81287245;9.14186865;2022-08-20T10:15:01;23.28;60.21
216;HTU21D;45701;48.81287245;9.14186865;2022-08-20T10:17:27;23.25;59.53
216;HTU21D;45701;48.81287245;9.14186865;2022-08-20T10:19:54;23.21;59.67
216;HTU21D;45701;48.81287245;9.14186865;2022-08-20T10:22:21;23.05;60.41
216;HTU21D;45701;48.81287245;9.14186865;2022-08-20T10:24:49;23.18;59.36
216;HTU21D;45701;48.81287245;9.14186865;2022-08-20T10:27:15;23.28;59.43
216;HTU21D;45701;48.81287245;9.14186865;2022-08-20T10:29:43;23.41;59.67
216;HTU21D;45701;48.81287245;9.14186865;2022-08-20T10:32:12;23.28;60.28
216;HTU21D;45701;48.81287245;9.14186865;2022-08-20T10:34:42;23.29;60.59
216;HTU21D;45701;48.81287245;9.14186865;2022-08-20T10:37:11;23.27;59.81
216;HTU21D;45701;48.81287245;9.14186865;2022-08-20T10:39:39;23.31;60.08
216;HTU21D;45701;48.81287245;9.14186865;2022-08-20T10:42:06;23.35;59.73
216;HTU21D;45701;48.81287245;9.14186865;2022-08-20T10:44:32;23.55;60.09
216;HTU21D;45701;48.81287245;9.14186865;2022-08-20T10:47:14;23.59;60.33
216;HTU21D;45701;48.81287245;9.14186865;2022-08-20T10:49:41;23.56;59.69
216;HTU21D;45701;48.81287245;9.14186865;2022-08-20T10:52:08;23.32;60.94
216;HTU21D;45701;48.81287245;9.14186865;2022-08-20T10:54:35;23.20;61.18
216;HTU21D;45701;48.81287245;9.14186865;2022-08-20T10:57:05;23.23;62.06
216;HTU21D;45701;48.81287245;9.14186865;2022-08-20T10:59:37;23.34;59.42
216;HTU21D;45701;48.81287245;9.14186865;2022-08-20T11:02:04;23.06;59.92
216;HTU21D;45701;48.81287245;9.14186865;2022-08-20T11:04:32;22.96;59.83
216;HTU21D;45701;48.81287245;9.14186865;2022-08-20T11:07:10;22.90;60.19
216;HTU21D;45701;48.81287245;9.14186865;2022-08-20T11:09:36;22.91;60.12
216;HTU21D;45701;48.81287245;9.14186865;2022-08-20T11:12:04;23.03;59.25
216;HTU21D;45701;48.81287245;9.14186865;2022-08-20T11:14:30;23.18;59.09
216;HTU21D;45701;48.81287245;9.14186865;2022-08-20T11:16:58;23.21;59.21
216;HTU21D;45701;48.81287245;9.14186865;2022-08-20T11:19:25;23.13;58.70
216;HTU21D;45701;48.81287245;9.14186865;2022-08-20T11:21:53;23.36;57.85
216;HTU21D;45701;48.81287245;9.14186865;2022-08-20T11:24:19;23.26;58.32
216;HTU21D;45701;48.81287245;9.14186865;2022-08-20T11:26:47;23.55;56.60
216;HTU21D;45701;48.81287245;9.14186865;2022-08-20T11:29:14;23.56;56.29
216;HTU21D;45701;48.81287245;9.14186865;2022-08-20T11:31:42;23.53;56.10
216;HTU21D;45701;48.81287245;9.14186865;2022-08-20T11:34:08;23.59;55.97
216;HTU21D;45701;48.81287245;9.14186865;2022-08-20T11:36:36;23.61;56.23
216;HTU21D;45701;48.81287245;9.14186865;2022-08-20T11:39:04;23.80;55.81
216;HTU21D;45701;48.81287245;9.14186865;2022-08-20T11:41:31;23.51;56.59
216;HTU21D;45701;48.81287245;9.14186865;2022-08-20T11:43:58;23.55;56.71
216;HTU21D;45701;48.81287245;9.14186865;2022-08-20T11:46:24;23.61;56.19
216;HTU21D;45701;48.81287245;9.14186865;2022-08-20T11:48:51;23.47;56.68
216;HTU21D;45701;48.81287245;9.14186865;2022-08-20T11:51:18;23.51;56.78
216;HTU21D;45701;48.81287245;9.14186865;2022-08-20T11:53:44;23.45;55.82
216;HTU21D;45701;48.81287245;9.14186865;2022-08-20T11:56:13;23.62;56.34
216;HTU21D;45701;48.81287245;9.14186865;2022-08-20T11:58:40;23.68;55.95
216;HTU21D;45701;48.81287245;9.14186865;2022-08-20T12:01:07;23.47;57.21
216;HTU21D;45701;48.81287245;9.14186865;2022-08-20T12:03:34;23.44;56.83
216;HTU21D;45701;48.81287245;9.14186865;2022-08-20T12:06:01;23.52;56.44
216;HTU21D;45701;48.81287245;9.14186865;2022-08-20T12:08:28;23.54;56.26
216;HTU21D;45701;48.81287245;9.14186865;2022-08-20T12:10:55;23.53;56.40
216;HTU21D;45701;48.81287245;9.14186865;2022-08-20T12:13:24;23.58;55.78
216;HTU21D;45701;48.81287245;9.14186865;2022-08-20T12:15:53;23.40;56.13
216;HTU21D;45701;48.81287245;9.14186865;2022-08-20T12:18:23;23.52;56.24
216;HTU21D;45701;48.81287245;9.14186865;2022-08-20T12:20:50;23.51;56.41
216;HTU21D;45701;48.81287245;9.14186865;2022-08-20T12:23:17;23.60;56.36
216;HTU21D;45701;48.81287245;9.14186865;2022-08-20T12:25:44;23.77;56.19
216;HTU21D;45701;48.81287245;9.14186865;2022-08-20T12:28:11;23.87;56.10
216;HTU21D;45701;48.81287245;9.14186865;2022-08-20T12:30:39;23.88;56.18
216;HTU21D;45701;48.81287245;9.14186865;2022-08-20T12:33:06;23.89;56.30
216;HTU21D;45701;48.81287245;9.14186865;2022-08-20T12:35:32;23.81;57.11
216;HTU21D;45701;48.81287245;9.14186865;2022-08-20T12:38:03;23.90;56.58
216;HTU21D;45701;48.81287245;9.14186865;2022-08-20T12:40:30;24.00;56.62
216;HTU21D;45701;48.81287245;9.14186865;2022-08-20T12:42:57;24.04;56.46
216;HTU21D;45701;48.81287245;9.14186865;2022-08-20T12:45:24;23.83;56.97
216;HTU21D;45701;48.81287245;9.14186865;2022-08-20T12:47:59;23.82;57.13
216;HTU21D;45701;48.81287245;9.14186865;2022-08-20T12:50:26;23.73;60.38
216;HTU21D;45701;48.81287245;9.14186865;2022-08-20T12:52:52;23.60;63.19
216;HTU21D;45701;48.81287245;9.14186865;2022-08-20T12:55:19;23.42;64.23
216;HTU21D;45701;48.81287245;9.14186865;2022-08-20T12:57:48;22.87;65.59
216;HTU21D;45701;48.81287245;9.14186865;2022-08-20T13:00:18;22.72;69.30
216;HTU21D;45701;48.81287245;9.14186865;2022-08-20T13:02:47;22.42;71.67
216;HTU21D;45701;48.81287245;9.14186865;2022-08-20T13:05:15;22.41;70.39
216;HTU21D;45701;48.81287245;9.14186865;2022-08-20T13:07:43;22.78;70.02
216;HTU21D;45701;48.81287245;9.14186865;2022-08-20T13:10:13;22.90;68.49
216;HTU21D;45701;48.81287245;9.14186865;2022-08-20T13:12:39;22.91;67.76
216;HTU21D;45701;48.81287245;9.14186865;2022-08-20T13:15:07;23.15;66.25
216;HTU21D;45701;48.81287245;9.14186865;2022-08-20T13:17:34;23.23;66.16
216;HTU21D;45701;48.81287245;9.14186865;2022-08-20T13:20:01;23.77;65.70
216;HTU21D;45701;48.81287245;9.14186865;2022-08-20T13:22:29;24.44;62.86
216;HTU21D;45701;48.81287245;9.14186865;2022-08-20T13:24:55;24.68;62.66
216;HTU21D;45701;48.81287245;9.14186865;2022-08-20T13:27:22;24.61;62.38
216;HTU21D;45701;48.81287245;9.14186865;2022-08-20T13:29:50;24.28;64.16
216;HTU21D;45701;48.81287245;9.14186865;2022-08-20T13:32:18;23.69;66.12
216;HTU21D;45701;48.81287245;9.14186865;2022-08-20T13:34:45;23.67;66.30
216;HTU21D;45701;48.81287245;9.14186865;2022-08-20T13:37:12;23.36;67.71
216;HTU21D;45701;48.81287245;9.14186865;2022-08-20T13:39:41;23.39;68.27
216;HTU21D;45701;48.81287245;9.14186865;2022-08-20T13:42:09;23.59;67.70